createdAt,value
2022-07-27T00:01:17.008Z,17.40
2022-07-27T00:03:46.852Z,17.30
2022-07-27T00:06:17.955Z,17.40
2022-07-27T00:08:46.436Z,17.30
2022-07-27T00:11:15.293Z,17.30
2022-07-27T00:13:45.228Z,17.30
2022-07-27T00:16:15.300Z,17.20
2022-07-27T00:18:43.930Z,17.20
2022-07-27T00:21:14.891Z,17.20
2022-07-27T00:23:44.817Z,17.10
2022-07-27T00:26:13.523Z,17.10
2022-07-27T00:28:42.022Z,17.00
2022-07-27T00:31:10.619Z,17.00
2022-07-27T00:33:40.439Z,16.90
2022-07-27T00:36:09.558Z,16.90
2022-07-27T00:38:38.182Z,16.90
2022-07-27T00:41:07.079Z,16.80
2022-07-27T00:43:51.058Z,16.80
2022-07-27T00:46:19.561Z,16.80
2022-07-27T00:48:51.381Z,16.70
2022-07-27T00:51:22.201Z,16.70
2022-07-27T00:53:52.495Z,16.70
2022-07-27T00:56:21.895Z,16.60
2022-07-27T00:58:53.477Z,16.60
2022-07-27T01:01:22.252Z,16.50
2022-07-27T01:03:52.067Z,16.50
2022-07-27T01:06:26.842Z,16.40
2022-07-27T01:09:17.073Z,16.40
2022-07-27T01:11:45.905Z,16.40
2022-07-27T01:14:15.156Z,16.40
2022-07-27T01:16:44.453Z,16.30
2022-07-27T01:19:16.217Z,16.30
2022-07-27T01:21:46.231Z,16.30
2022-07-27T01:24:14.826Z,16.20
2022-07-27T01:26:43.339Z,16.20
2022-07-27T01:29:12.197Z,16.10
2022-07-27T01:31:41.073Z,16.20
2022-07-27T01:34:09.598Z,16.10
2022-07-27T01:36:38.716Z,16.10
2022-07-27T01:39:09.025Z,16.10
2022-07-27T01:41:37.714Z,16.10
2022-07-27T01:44:06.884Z,16.10
2022-07-27T01:46:35.698Z,16.00
2022-07-27T01:49:05.357Z,16.00
2022-07-27T01:51:34.266Z,16.00
2022-07-27T01:54:02.719Z,15.90
2022-07-27T01:56:32.526Z,15.90
2022-07-27T01:59:01.159Z,15.90
2022-07-27T02:01:29.775Z,15.90
2022-07-27T02:03:58.324Z,15.90
2022-07-27T02:06:26.871Z,15.90
2022-07-27T02:08:55.298Z,15.90
2022-07-27T02:11:40.995Z,15.90
2022-07-27T02:14:10.846Z,15.90
2022-07-27T02:16:39.379Z,15.90
2022-07-27T02:19:09.068Z,16.00
2022-07-27T02:21:39.833Z,16.00
2022-07-27T02:24:08.965Z,15.90
2022-07-27T02:26:37.515Z,15.90
2022-07-27T02:29:05.970Z,15.90
2022-07-27T02:31:35.887Z,15.90
2022-07-27T02:34:04.757Z,15.90
2022-07-27T02:36:33.616Z,15.90
2022-07-27T02:39:02.173Z,15.90
2022-07-27T02:41:30.709Z,15.90
2022-07-27T02:44:00.643Z,15.90
2022-07-27T02:46:29.227Z,15.90
2022-07-27T02:48:59.070Z,15.90
2022-07-27T02:51:27.665Z,15.90
2022-07-27T02:53:56.588Z,15.90
2022-07-27T02:56:26.826Z,15.90
2022-07-27T02:58:55.694Z,15.90
2022-07-27T03:01:24.205Z,15.90
2022-07-27T03:03:52.706Z,15.90
2022-07-27T03:06:22.548Z,15.80
2022-07-27T03:08:51.346Z,15.80
2022-07-27T03:11:19.872Z,15.80
2022-07-27T03:13:48.330Z,15.80
2022-07-27T03:16:17.670Z,15.80
2022-07-27T03:18:47.933Z,15.80
2022-07-27T03:21:18.136Z,15.80
2022-07-27T03:23:47.981Z,15.80
2022-07-27T03:26:16.841Z,15.80
2022-07-27T03:28:45.424Z,15.80
2022-07-27T03:31:14.106Z,15.90
2022-07-27T03:33:42.608Z,15.90
2022-07-27T03:36:11.143Z,15.90
2022-07-27T03:38:39.594Z,15.90
2022-07-27T03:41:09.505Z,15.90
2022-07-27T03:43:37.991Z,15.90
2022-07-27T03:46:06.576Z,15.90
2022-07-27T03:48:35.115Z,15.90
2022-07-27T03:51:06.567Z,15.90
2022-07-27T03:53:35.046Z,15.90
2022-07-27T03:56:03.619Z,16.00
2022-07-27T03:58:33.535Z,16.00
2022-07-27T04:01:03.415Z,16.00
2022-07-27T04:03:32.023Z,16.00
2022-07-27T04:06:00.575Z,16.00
2022-07-27T04:08:30.223Z,16.00
2022-07-27T04:10:58.782Z,16.10
2022-07-27T04:13:28.698Z,16.10
2022-07-27T04:15:58.855Z,16.10
2022-07-27T04:18:27.480Z,16.10
2022-07-27T04:20:55.941Z,16.10
2022-07-27T04:23:24.835Z,16.20
2022-07-27T04:25:53.340Z,16.30
2022-07-27T04:28:24.755Z,16.40
2022-07-27T04:30:55.111Z,16.50
2022-07-27T04:33:24.995Z,16.50
2022-07-27T04:35:53.467Z,16.60
2022-07-27T04:38:23.478Z,16.70
2022-07-27T04:40:56.322Z,16.80
2022-07-27T04:43:28.249Z,16.90
2022-07-27T04:45:58.385Z,16.90
2022-07-27T04:48:28.298Z,16.90
2022-07-27T04:50:56.741Z,16.90
2022-07-27T04:53:25.303Z,16.90
2022-07-27T04:55:53.814Z,16.80
2022-07-27T04:58:22.411Z,16.80
2022-07-27T05:00:50.998Z,16.70
2022-07-27T05:03:19.842Z,16.70
2022-07-27T05:05:50.245Z,16.60
2022-07-27T05:08:19.421Z,16.70
2022-07-27T05:10:47.997Z,16.70
2022-07-27T05:13:16.617Z,16.80
2022-07-27T05:15:54.967Z,16.80
2022-07-27T05:18:25.687Z,16.80
2022-07-27T05:20:55.861Z,16.70
2022-07-27T05:23:24.334Z,16.80
2022-07-27T05:25:52.881Z,16.80
2022-07-27T05:28:21.418Z,16.90
2022-07-27T05:30:50.366Z,17.00
2022-07-27T05:33:19.241Z,17.00
2022-07-27T05:35:47.834Z,17.00
2022-07-27T05:38:17.852Z,17.20
2022-07-27T05:40:47.582Z,17.10
2022-07-27T05:43:16.106Z,17.20
2022-07-27T05:45:44.885Z,17.20
2022-07-27T05:48:13.506Z,17.20
2022-07-27T05:50:41.961Z,17.20
2022-07-27T05:53:10.437Z,17.10
2022-07-27T05:55:58.296Z,17.20
2022-07-27T05:58:29.713Z,17.10
2022-07-27T06:00:58.862Z,17.20
2022-07-27T06:03:27.672Z,17.30
2022-07-27T06:06:16.580Z,17.30
2022-07-27T06:08:44.986Z,17.30
2022-07-27T06:11:14.987Z,17.40
2022-07-27T06:13:43.512Z,17.40
2022-07-27T06:16:12.112Z,17.50
2022-07-27T06:18:40.924Z,17.60
2022-07-27T06:21:09.604Z,17.60
2022-07-27T06:23:38.120Z,17.60
2022-07-27T06:26:06.639Z,17.70
2022-07-27T06:28:36.515Z,17.80
2022-07-27T06:31:05.513Z,17.70
2022-07-27T06:33:35.916Z,17.80
2022-07-27T06:36:05.829Z,17.70
2022-07-27T06:38:35.456Z,17.80
2022-07-27T06:41:04.185Z,17.80
2022-07-27T06:43:34.488Z,17.90
2022-07-27T06:46:05.883Z,17.90
2022-07-27T06:48:34.730Z,17.90
2022-07-27T06:51:03.241Z,17.90
2022-07-27T06:53:36.441Z,18.00
2022-07-27T06:56:08.528Z,18.20
2022-07-27T06:58:38.654Z,18.30
2022-07-27T07:01:08.499Z,18.50
2022-07-27T07:03:37.425Z,18.40
2022-07-27T07:06:06.405Z,18.50
2022-07-27T07:08:35.774Z,18.80
2022-07-27T07:11:04.786Z,18.70
2022-07-27T07:13:37.764Z,18.80
2022-07-27T07:16:09.296Z,18.80
2022-07-27T07:18:37.844Z,18.90
2022-07-27T07:21:06.486Z,18.80
2022-07-27T07:23:35.021Z,18.80
2022-07-27T07:26:03.531Z,18.80
2022-07-27T07:28:32.032Z,18.90
2022-07-27T07:31:00.600Z,19.10
2022-07-27T07:33:30.916Z,19.10
2022-07-27T07:36:12.535Z,19.50
2022-07-27T07:38:43.428Z,19.70
2022-07-27T07:41:12.600Z,19.80
2022-07-27T07:43:42.358Z,19.90
2022-07-27T07:46:10.997Z,19.80
2022-07-27T07:48:43.578Z,19.80
2022-07-27T07:51:12.423Z,19.90
2022-07-27T07:53:41.841Z,20.00
2022-07-27T07:56:10.818Z,20.10
2022-07-27T07:58:39.605Z,20.10
2022-07-27T08:01:08.197Z,20.20
2022-07-27T08:03:36.710Z,20.50
2022-07-27T08:06:08.339Z,20.70
2022-07-27T08:08:36.911Z,20.90
2022-07-27T08:11:05.435Z,21.10
2022-07-27T08:13:36.230Z,21.30
2022-07-27T08:16:05.625Z,21.70
2022-07-27T08:18:34.408Z,21.90
2022-07-27T08:21:02.904Z,22.20
2022-07-27T08:23:32.869Z,22.40
2022-07-27T08:26:07.445Z,22.20
2022-07-27T08:28:37.230Z,22.50
2022-07-27T08:31:14.035Z,22.90
2022-07-27T08:33:44.449Z,23.40
2022-07-27T08:36:13.028Z,23.50
2022-07-27T08:38:43.057Z,23.40
2022-07-27T08:41:13.731Z,23.30
2022-07-27T08:43:45.122Z,23.60
2022-07-27T08:46:14.913Z,23.50
2022-07-27T08:48:43.476Z,23.70
2022-07-27T08:51:12.492Z,23.50
2022-07-27T08:53:53.105Z,23.50
2022-07-27T08:56:22.836Z,23.30
2022-07-27T08:58:52.034Z,23.00
2022-07-27T09:01:21.408Z,23.00
2022-07-27T09:03:50.054Z,23.00
2022-07-27T09:06:40.740Z,23.00
2022-07-27T09:09:11.499Z,23.30
2022-07-27T09:11:41.045Z,23.40
2022-07-27T09:14:14.712Z,23.70
2022-07-27T09:17:28.883Z,23.60
2022-07-27T09:19:31.726Z,23.10
2022-07-27T09:22:05.381Z,22.90
2022-07-27T09:24:46.689Z,23.40
2022-07-27T09:27:16.323Z,24.00
2022-07-27T09:29:44.774Z,23.90
2022-07-27T09:32:16.959Z,23.90
2022-07-27T09:34:46.454Z,24.00
2022-07-27T09:37:25.064Z,23.70
2022-07-27T09:40:11.533Z,23.70
2022-07-27T09:43:08.774Z,24.00
2022-07-27T09:45:34.511Z,24.00
2022-07-27T09:48:15.465Z,24.00
2022-07-27T09:51:01.241Z,24.30
2022-07-27T09:53:43.668Z,24.60
2022-07-27T09:56:17.715Z,24.20
2022-07-27T09:58:47.947Z,24.20
2022-07-27T10:01:18.754Z,24.30
2022-07-27T10:03:48.277Z,24.20
2022-07-27T10:06:17.546Z,24.30
2022-07-27T10:08:47.861Z,24.00
2022-07-27T10:11:18.900Z,24.10
2022-07-27T10:13:47.884Z,24.10
2022-07-27T10:16:19.155Z,24.10
2022-07-27T10:18:56.028Z,23.40
2022-07-27T10:21:26.159Z,22.90
2022-07-27T10:24:02.403Z,22.90
2022-07-27T10:26:36.589Z,22.80
2022-07-27T10:29:07.630Z,23.00
2022-07-27T10:31:40.493Z,23.60
2022-07-27T10:34:10.960Z,23.90
2022-07-27T10:36:51.982Z,23.90
2022-07-27T10:39:45.061Z,23.80
2022-07-27T10:42:26.490Z,23.70
2022-07-27T10:45:04.711Z,24.10
2022-07-27T10:47:37.942Z,24.40
2022-07-27T10:50:36.777Z,24.40
2022-07-27T10:53:08.325Z,24.50
2022-07-27T10:55:45.018Z,24.50
2022-07-27T10:58:47.146Z,24.50
2022-07-27T11:01:17.795Z,24.80
2022-07-27T11:03:52.864Z,24.40
2022-07-27T11:06:36.296Z,23.70
2022-07-27T11:11:59.924Z,23.50
2022-07-27T11:14:32.007Z,23.70
2022-07-27T11:17:32.288Z,23.80
2022-07-27T11:19:54.824Z,23.90
2022-07-27T11:22:53.629Z,24.50
2022-07-27T11:25:19.662Z,24.00
2022-07-27T11:27:49.569Z,23.90
2022-07-27T11:30:28.417Z,24.30
2022-07-27T11:32:57.657Z,24.60
2022-07-27T11:35:26.356Z,25.00
2022-07-27T11:38:05.688Z,25.20
2022-07-27T11:40:56.989Z,24.80
2022-07-27T11:43:37.135Z,24.50
2022-07-27T11:46:19.765Z,25.20
2022-07-27T11:49:06.602Z,25.40
2022-07-27T11:51:37.610Z,25.00
2022-07-27T11:54:08.958Z,25.20
2022-07-27T11:56:39.213Z,25.50
2022-07-27T11:59:11.443Z,26.00
2022-07-27T12:01:43.857Z,26.30
2022-07-27T12:04:19.519Z,26.20
2022-07-27T12:06:57.178Z,26.10
2022-07-27T12:09:28.035Z,26.00
2022-07-27T12:12:14.042Z,26.30
2022-07-27T12:14:48.033Z,25.90
2022-07-27T12:17:27.951Z,25.20
2022-07-27T12:20:05.515Z,24.90
2022-07-27T12:22:40.475Z,25.00
2022-07-27T12:25:15.852Z,25.00
2022-07-27T12:27:56.737Z,24.90
2022-07-27T12:30:33.437Z,24.90
2022-07-27T12:33:05.095Z,25.00
2022-07-27T12:35:38.812Z,24.50
2022-07-27T12:38:11.429Z,24.60
2022-07-27T12:40:46.133Z,24.70
2022-07-27T12:43:18.722Z,25.20
2022-07-27T12:45:48.410Z,25.40
2022-07-27T12:48:20.512Z,25.80
2022-07-27T12:50:57.833Z,25.50
2022-07-27T12:53:26.571Z,25.30
2022-07-27T12:55:57.235Z,24.90
2022-07-27T12:58:26.087Z,24.30
2022-07-27T13:00:55.172Z,23.90
2022-07-27T13:03:25.317Z,23.60
2022-07-27T13:05:53.837Z,23.70
2022-07-27T13:08:23.610Z,23.60
2022-07-27T13:10:52.992Z,23.60
2022-07-27T13:13:24.824Z,23.50
2022-07-27T13:15:54.043Z,23.70
2022-07-27T13:18:24.036Z,23.80
2022-07-27T13:20:54.200Z,23.70
2022-07-27T13:23:22.750Z,23.80
2022-07-27T13:25:51.380Z,23.70
2022-07-27T13:28:20.372Z,23.90
2022-07-27T13:30:48.870Z,23.90
2022-07-27T13:33:17.361Z,24.30
2022-07-27T13:35:47.568Z,24.90
2022-07-27T13:38:29.657Z,25.10
2022-07-27T13:40:58.337Z,25.30
2022-07-27T13:43:26.851Z,25.20
2022-07-27T13:45:55.525Z,24.60
2022-07-27T13:48:24.174Z,24.10
2022-07-27T13:50:52.665Z,24.10
2022-07-27T13:53:21.227Z,24.10
2022-07-27T13:55:51.280Z,24.10
2022-07-27T13:58:20.084Z,24.00
2022-07-27T14:00:49.732Z,23.80
2022-07-27T14:03:18.624Z,23.60
2022-07-27T14:05:49.458Z,23.60
2022-07-27T14:08:19.172Z,23.60
2022-07-27T14:10:48.913Z,23.90
2022-07-27T14:13:22.689Z,24.10
2022-07-27T14:15:54.947Z,24.10
2022-07-27T14:18:30.792Z,23.90
2022-07-27T14:21:02.514Z,24.00
2022-07-27T14:23:31.596Z,23.90
2022-07-27T14:26:01.548Z,24.20
2022-07-27T14:28:32.211Z,24.10
2022-07-27T14:31:01.914Z,24.00
2022-07-27T14:33:37.056Z,24.20
2022-07-27T14:36:10.474Z,24.20
2022-07-27T14:38:39.560Z,23.90
2022-07-27T14:41:08.260Z,23.70
2022-07-27T14:43:38.665Z,23.60
2022-07-27T14:46:07.373Z,23.50
2022-07-27T14:49:05.272Z,23.50
2022-07-27T14:51:24.612Z,23.60
2022-07-27T14:53:53.193Z,23.50
2022-07-27T14:56:23.155Z,23.60
2022-07-27T14:58:53.228Z,23.90
2022-07-27T15:01:21.902Z,23.70
2022-07-27T15:03:50.550Z,23.70
2022-07-27T15:06:19.297Z,23.50
2022-07-27T15:08:48.003Z,23.50
2022-07-27T15:11:16.817Z,23.30
2022-07-27T15:13:45.380Z,22.90
2022-07-27T15:16:15.885Z,22.90
2022-07-27T15:18:45.433Z,23.00
2022-07-27T15:21:14.698Z,23.00
2022-07-27T15:23:44.474Z,22.90
2022-07-27T15:26:13.695Z,22.80
2022-07-27T15:28:42.933Z,22.90
2022-07-27T15:31:13.363Z,22.80
2022-07-27T15:33:43.611Z,23.00
2022-07-27T15:36:31.516Z,22.90
2022-07-27T15:39:01.542Z,22.90
2022-07-27T15:41:30.807Z,22.70
2022-07-27T15:44:00.880Z,22.50
2022-07-27T15:46:32.228Z,22.40
2022-07-27T15:49:02.875Z,22.30
2022-07-27T15:51:32.447Z,22.20
2022-07-27T15:54:01.026Z,22.20
2022-07-27T15:56:29.474Z,22.10
2022-07-27T15:58:58.016Z,21.80
2022-07-27T16:01:35.617Z,21.70
2022-07-27T16:04:07.081Z,21.70
2022-07-27T16:06:39.366Z,21.70
2022-07-27T16:09:10.233Z,21.60
2022-07-27T16:11:39.461Z,21.50
2022-07-27T16:14:08.707Z,21.50
2022-07-27T16:16:37.295Z,21.50
2022-07-27T16:19:13.179Z,21.40
2022-07-27T16:21:55.220Z,21.40
2022-07-27T16:24:26.444Z,21.30
2022-07-27T16:26:55.178Z,21.40
2022-07-27T16:29:24.040Z,21.40
2022-07-27T16:31:58.054Z,21.40
2022-07-27T16:34:30.913Z,21.40
2022-07-27T16:37:00.249Z,21.40
2022-07-27T16:39:30.151Z,21.40
2022-07-27T16:41:58.600Z,21.20
2022-07-27T16:44:27.276Z,21.20
2022-07-27T16:46:56.750Z,21.20
2022-07-27T16:49:33.538Z,21.20
2022-07-27T16:52:07.721Z,21.30
2022-07-27T16:54:39.866Z,21.30
2022-07-27T16:57:09.282Z,21.40
2022-07-27T16:59:39.276Z,21.40
2022-07-27T17:02:08.192Z,21.30
2022-07-27T17:04:36.964Z,21.20
2022-07-27T17:07:05.457Z,21.20
2022-07-27T17:09:42.468Z,21.20
2022-07-27T17:12:11.235Z,21.30
2022-07-27T17:14:46.014Z,21.30
2022-07-27T17:17:14.889Z,21.20
2022-07-27T17:19:44.755Z,21.10
2022-07-27T17:22:13.382Z,20.80
2022-07-27T17:24:43.494Z,20.70
2022-07-27T17:27:13.116Z,20.60
2022-07-27T17:29:41.701Z,20.50
2022-07-27T17:32:10.380Z,20.40
2022-07-27T17:34:39.006Z,20.40
2022-07-27T17:37:07.494Z,20.30
2022-07-27T17:39:37.159Z,20.30
2022-07-27T17:42:07.983Z,20.30
2022-07-27T17:44:38.478Z,20.20
2022-07-27T17:47:07.188Z,20.20
2022-07-27T17:49:35.844Z,20.20
2022-07-27T17:52:06.491Z,20.20
2022-07-27T17:54:35.456Z,20.20
2022-07-27T17:57:04.057Z,20.10
2022-07-27T17:59:38.404Z,20.00
2022-07-27T18:02:09.011Z,20.00
2022-07-27T18:04:39.720Z,20.00
2022-07-27T18:07:08.442Z,20.00
2022-07-27T18:09:37.244Z,20.00
2022-07-27T18:12:06.497Z,19.90
2022-07-27T18:14:40.871Z,19.80
2022-07-27T18:17:09.359Z,19.80
2022-07-27T18:19:41.669Z,19.80
2022-07-27T18:22:12.757Z,19.70
2022-07-27T18:24:41.284Z,19.70
2022-07-27T18:27:09.749Z,19.60
2022-07-27T18:29:39.641Z,19.60
2022-07-27T18:32:08.461Z,19.60
2022-07-27T18:34:37.229Z,19.50
2022-07-27T18:37:05.749Z,19.50
2022-07-27T18:39:34.307Z,19.40
2022-07-27T18:42:04.019Z,19.40
2022-07-27T18:44:38.574Z,19.30
2022-07-27T18:47:09.043Z,19.30
2022-07-27T18:49:37.579Z,19.20
2022-07-27T18:52:06.993Z,19.20
2022-07-27T18:54:36.078Z,19.20
2022-07-27T18:57:05.040Z,19.20
2022-07-27T18:59:35.601Z,19.10
2022-07-27T19:02:11.622Z,19.10
2022-07-27T19:04:41.180Z,19.00
2022-07-27T19:07:11.195Z,19.00
2022-07-27T19:09:43.495Z,18.90
2022-07-27T19:12:15.055Z,18.90
2022-07-27T19:14:43.896Z,18.80
2022-07-27T19:17:20.547Z,18.80
2022-07-27T19:19:49.126Z,18.80
2022-07-27T19:22:20.329Z,18.80
2022-07-27T19:24:54.407Z,18.80
2022-07-27T19:27:24.024Z,18.80
2022-07-27T19:29:52.554Z,18.80
2022-07-27T19:32:22.700Z,18.80
2022-07-27T19:34:51.209Z,18.70
2022-07-27T19:37:19.755Z,18.70
2022-07-27T19:39:57.571Z,18.70
2022-07-27T19:42:32.156Z,18.70
2022-07-27T19:45:00.629Z,18.70
2022-07-27T19:47:30.480Z,18.60
2022-07-27T19:50:00.894Z,18.60
2022-07-27T19:52:29.551Z,18.50
2022-07-27T19:54:58.068Z,18.50
2022-07-27T19:57:26.670Z,18.50
2022-07-27T19:59:56.851Z,18.50
2022-07-27T20:02:26.275Z,18.50
2022-07-27T20:04:56.253Z,18.40
2022-07-27T20:07:24.802Z,18.40
2022-07-27T20:09:53.448Z,18.30
2022-07-27T20:12:23.854Z,18.30
2022-07-27T20:14:52.431Z,18.20
2022-07-27T20:17:20.990Z,18.20
2022-07-27T20:19:49.509Z,18.20
2022-07-27T20:22:19.411Z,18.20
2022-07-27T20:24:47.950Z,18.20
2022-07-27T20:27:16.456Z,18.10
2022-07-27T20:29:45.013Z,18.00
2022-07-27T20:32:13.752Z,18.00
2022-07-27T20:34:42.330Z,18.00
2022-07-27T20:37:12.423Z,17.90
2022-07-27T20:39:42.460Z,17.90
2022-07-27T20:42:11.084Z,17.80
2022-07-27T20:44:39.692Z,17.80
2022-07-27T20:47:09.026Z,17.80
2022-07-27T20:49:37.587Z,17.70
2022-07-27T20:52:07.700Z,17.70
2022-07-27T20:54:36.718Z,17.60
2022-07-27T20:57:07.641Z,17.60
2022-07-27T20:59:36.256Z,17.50
2022-07-27T21:02:04.993Z,17.50
2022-07-27T21:04:33.577Z,17.50
2022-07-27T21:07:02.051Z,17.40
2022-07-27T21:09:31.676Z,17.40
2022-07-27T21:12:00.592Z,17.40
2022-07-27T21:14:30.544Z,17.40
2022-07-27T21:16:59.646Z,17.40
2022-07-27T21:19:28.362Z,17.40
2022-07-27T21:21:56.929Z,17.40
2022-07-27T21:24:26.177Z,17.40
2022-07-27T21:27:00.929Z,17.30
2022-07-27T21:29:34.413Z,17.20
2022-07-27T21:32:03.008Z,17.20
2022-07-27T21:34:31.550Z,17.20
2022-07-27T21:37:00.135Z,17.10
2022-07-27T21:39:29.101Z,17.00
2022-07-27T21:42:01.876Z,17.00
2022-07-27T21:44:32.578Z,17.00
2022-07-27T21:47:03.760Z,16.90
2022-07-27T21:49:34.455Z,16.80
2022-07-27T21:52:03.434Z,16.90
2022-07-27T21:54:32.045Z,16.80
2022-07-27T21:57:00.787Z,16.70
2022-07-27T21:59:29.522Z,16.70
2022-07-27T22:01:58.994Z,16.70
2022-07-27T22:04:29.312Z,16.70
2022-07-27T22:06:57.810Z,16.60
2022-07-27T22:09:27.176Z,16.60
2022-07-27T22:11:57.039Z,16.60
2022-07-27T22:14:29.633Z,16.60
2022-07-27T22:17:00.113Z,16.60
2022-07-27T22:19:30.659Z,16.60
2022-07-27T22:21:59.165Z,16.50
2022-07-27T22:24:27.745Z,16.50
2022-07-27T22:26:56.307Z,16.50
2022-07-27T22:29:24.869Z,16.50
2022-07-27T22:31:53.413Z,16.40
2022-07-27T22:34:21.979Z,16.40
2022-07-27T22:36:51.940Z,16.30
2022-07-27T22:39:20.407Z,16.30
2022-07-27T22:41:48.956Z,16.30
2022-07-27T22:44:19.124Z,16.20
2022-07-27T22:46:50.543Z,16.20
2022-07-27T22:49:19.142Z,16.10
2022-07-27T22:51:49.623Z,16.10
2022-07-27T22:54:22.923Z,16.00
2022-07-27T22:56:51.688Z,16.00
2022-07-27T22:59:20.179Z,15.90
2022-07-27T23:01:49.019Z,15.90
2022-07-27T23:04:18.699Z,15.90
2022-07-27T23:06:47.766Z,15.80
2022-07-27T23:09:16.500Z,15.80
2022-07-27T23:11:46.812Z,15.80
2022-07-27T23:14:15.706Z,15.80
2022-07-27T23:16:45.359Z,15.70
2022-07-27T23:19:13.999Z,15.70
2022-07-27T23:21:42.561Z,15.70
2022-07-27T23:24:14.170Z,15.70
2022-07-27T23:26:43.526Z,15.60
2022-07-27T23:29:13.357Z,15.60
2022-07-27T23:31:43.036Z,15.60
2022-07-27T23:34:11.833Z,15.60
2022-07-27T23:36:43.734Z,15.60
2022-07-27T23:39:12.309Z,15.50
2022-07-27T23:41:40.752Z,15.50
2022-07-27T23:44:10.848Z,15.40
2022-07-27T23:46:42.177Z,15.40
2022-07-27T23:49:10.872Z,15.40
2022-07-27T23:51:40.293Z,15.40
2022-07-27T23:54:08.812Z,15.40
2022-07-27T23:56:37.321Z,15.40
2022-07-27T23:59:05.851Z,15.30
